sensor_id;sensor_type;location;lat;lon;timestamp;pressure;altitude;pressure_sealevel;temperature;humidity
79799;BME280;69283;48.024;11.090;2023-09-30T00:01:44;96174.22;;;17.88;64.66
79799;BME280;69283;48.024;11.090;2023-09-30T00:04:10;96173.34;;;17.84;64.67
79799;BME280;69283;48.024;11.090;2023-09-30T00:06:35;96174.66;;;17.71;64.93
79799;BME280;69283;48.024;11.090;2023-09-30T00:09:01;96175.66;;;17.62;65.41
79799;BME280;69283;48.024;11.090;2023-09-30T00:11:27;96180.94;;;17.71;65.15
79799;BME280;69283;48.024;11.090;2023-09-30T00:13:52;96180.69;;;17.60;65.49
79799;BME280;69283;48.024;11.090;2023-09-30T00:16:18;96183.88;;;17.62;65.52
79799;BME280;69283;48.024;11.090;2023-09-30T00:18:44;96195.75;;;17.51;65.75
79799;BME280;69283;48.024;11.090;2023-09-30T00:21:10;96196.78;;;17.43;65.96
79799;BME280;69283;48.024;11.090;2023-09-30T00:23:35;96196.69;;;17.58;65.77
79799;BME280;69283;48.024;11.090;2023-09-30T00:26:01;96211.84;;;17.52;65.80
79799;BME280;69283;48.024;11.090;2023-09-30T00:28:26;96214.72;;;17.59;65.54
79799;BME280;69283;48.024;11.090;2023-09-30T00:30:51;96208.72;;;17.70;65.14
79799;BME280;69283;48.024;11.090;2023-09-30T00:33:17;96209.88;;;17.69;65.44
79799;BME280;69283;48.024;11.090;2023-09-30T00:35:42;96203.00;;;17.78;64.96
79799;BME280;69283;48.024;11.090;2023-09-30T00:38:07;96205.44;;;17.64;65.52
79799;BME280;69283;48.024;11.090;2023-09-30T00:40:33;96200.16;;;17.55;65.46
79799;BME280;69283;48.024;11.090;2023-09-30T00:43:00;96197.41;;;17.55;65.82
79799;BME280;69283;48.024;11.090;2023-09-30T00:45:26;96206.06;;;17.57;65.68
79799;BME280;69283;48.024;11.090;2023-09-30T00:47:51;96207.28;;;17.60;65.63
79799;BME280;69283;48.024;11.090;2023-09-30T00:50:19;96205.81;;;17.62;65.30
79799;BME280;69283;48.024;11.090;2023-09-30T00:52:45;96207.09;;;17.49;65.59
79799;BME280;69283;48.024;11.090;2023-09-30T00:55:12;96208.66;;;17.50;65.87
79799;BME280;69283;48.024;11.090;2023-09-30T00:57:38;96212.94;;;17.48;65.94
79799;BME280;69283;48.024;11.090;2023-09-30T01:00:04;96206.78;;;17.35;66.21
79799;BME280;69283;48.024;11.090;2023-09-30T01:02:31;96202.66;;;17.25;66.73
79799;BME280;69283;48.024;11.090;2023-09-30T01:04:56;96206.63;;;17.28;66.30
79799;BME280;69283;48.024;11.090;2023-09-30T01:07:23;96208.16;;;17.25;66.46
79799;BME280;69283;48.024;11.090;2023-09-30T01:09:49;96214.66;;;17.21;66.68
79799;BME280;69283;48.024;11.090;2023-09-30T01:12:15;96202.06;;;17.16;66.96
79799;BME280;69283;48.024;11.090;2023-09-30T01:14:41;96198.72;;;17.07;67.15
79799;BME280;69283;48.024;11.090;2023-09-30T01:17:08;96193.78;;;17.13;66.75
79799;BME280;69283;48.024;11.090;2023-09-30T01:19:34;96197.66;;;17.12;66.75
79799;BME280;69283;48.024;11.090;2023-09-30T01:21:59;96206.94;;;17.07;66.99
79799;BME280;69283;48.024;11.090;2023-09-30T01:24:26;96201.13;;;17.09;66.86
79799;BME280;69283;48.024;11.090;2023-09-30T01:26:51;96199.09;;;17.06;66.91
79799;BME280;69283;48.024;11.090;2023-09-30T01:29:18;96200.75;;;17.10;66.90
79799;BME280;69283;48.024;11.090;2023-09-30T01:31:43;96194.50;;;17.10;66.96
79799;BME280;69283;48.024;11.090;2023-09-30T01:34:08;96198.72;;;17.07;66.72
79799;BME280;69283;48.024;11.090;2023-09-30T01:36:35;96196.72;;;17.04;66.91
79799;BME280;69283;48.024;11.090;2023-09-30T01:39:01;96197.41;;;17.01;66.77
79799;BME280;69283;48.024;11.090;2023-09-30T01:41:28;96202.81;;;16.97;67.12
79799;BME280;69283;48.024;11.090;2023-09-30T01:43:53;96202.28;;;17.08;66.63
79799;BME280;69283;48.024;11.090;2023-09-30T01:46:18;96197.75;;;16.99;66.77
79799;BME280;69283;48.024;11.090;2023-09-30T01:48:44;96205.91;;;16.96;67.27
79799;BME280;69283;48.024;11.090;2023-09-30T01:51:09;96206.09;;;16.87;67.34
79799;BME280;69283;48.024;11.090;2023-09-30T01:53:34;96195.59;;;16.89;67.49
79799;BME280;69283;48.024;11.090;2023-09-30T01:56:00;96198.31;;;16.89;67.42
79799;BME280;69283;48.024;11.090;2023-09-30T01:58:25;96205.81;;;16.92;67.53
79799;BME280;69283;48.024;11.090;2023-09-30T02:00:52;96199.19;;;16.93;67.23
79799;BME280;69283;48.024;11.090;2023-09-30T02:03:17;96199.56;;;16.92;67.84
79799;BME280;69283;48.024;11.090;2023-09-30T02:05:43;96193.28;;;16.91;67.97
79799;BME280;69283;48.024;11.090;2023-09-30T02:08:08;96191.97;;;16.85;68.28
79799;BME280;69283;48.024;11.090;2023-09-30T02:10:33;96202.50;;;16.83;68.30
79799;BME280;69283;48.024;11.090;2023-09-30T02:12:59;96201.56;;;16.95;68.11
79799;BME280;69283;48.024;11.090;2023-09-30T02:15:25;96211.75;;;16.79;68.80
79799;BME280;69283;48.024;11.090;2023-09-30T02:17:51;96212.00;;;16.89;68.40
79799;BME280;69283;48.024;11.090;2023-09-30T02:20:17;96219.16;;;16.94;68.08
79799;BME280;69283;48.024;11.090;2023-09-30T02:22:45;96212.97;;;16.81;68.69
79799;BME280;69283;48.024;11.090;2023-09-30T02:25:11;96218.00;;;16.79;68.70
79799;BME280;69283;48.024;11.090;2023-09-30T02:27:38;96205.22;;;16.83;68.62
79799;BME280;69283;48.024;11.090;2023-09-30T02:30:04;96204.09;;;16.84;68.39
79799;BME280;69283;48.024;11.090;2023-09-30T02:32:30;96204.88;;;16.85;68.60
79799;BME280;69283;48.024;11.090;2023-09-30T02:34:58;96200.63;;;16.87;68.42
79799;BME280;69283;48.024;11.090;2023-09-30T02:37:23;96208.84;;;16.87;68.49
79799;BME280;69283;48.024;11.090;2023-09-30T02:39:48;96212.81;;;16.90;68.77
79799;BME280;69283;48.024;11.090;2023-09-30T02:42:14;96209.19;;;16.86;68.83
79799;BME280;69283;48.024;11.090;2023-09-30T02:44:40;96193.56;;;16.86;68.60
79799;BME280;69283;48.024;11.090;2023-09-30T02:47:06;96197.09;;;16.87;68.83
79799;BME280;69283;48.024;11.090;2023-09-30T02:49:34;96192.41;;;16.87;68.92
79799;BME280;69283;48.024;11.090;2023-09-30T02:51:59;96186.16;;;16.87;68.88
79799;BME280;69283;48.024;11.090;2023-09-30T02:54:24;96188.41;;;17.00;68.38
79799;BME280;69283;48.024;11.090;2023-09-30T02:56:50;96186.31;;;16.78;69.04
79799;BME280;69283;48.024;11.090;2023-09-30T02:59:15;96187.31;;;16.70;69.28
79799;BME280;69283;48.024;11.090;2023-09-30T03:01:41;96187.91;;;16.63;69.57
79799;BME280;69283;48.024;11.090;2023-09-30T03:04:07;96192.41;;;16.56;69.83
79799;BME280;69283;48.024;11.090;2023-09-30T03:06:33;96195.50;;;16.54;70.03
79799;BME280;69283;48.024;11.090;2023-09-30T03:09:02;96197.59;;;16.61;69.73
79799;BME280;69283;48.024;11.090;2023-09-30T03:11:28;96197.97;;;16.59;69.86
79799;BME280;69283;48.024;11.090;2023-09-30T03:13:54;96198.00;;;16.43;70.28
79799;BME280;69283;48.024;11.090;2023-09-30T03:16:20;96204.22;;;16.60;69.85
79799;BME280;69283;48.024;11.090;2023-09-30T03:18:46;96197.81;;;16.52;70.33
79799;BME280;69283;48.024;11.090;2023-09-30T03:21:14;96206.28;;;16.47;70.48
79799;BME280;69283;48.024;11.090;2023-09-30T03:23:40;96209.38;;;16.46;70.61
79799;BME280;69283;48.024;11.090;2023-09-30T03:26:06;96212.09;;;16.46;70.48
79799;BME280;69283;48.024;11.090;2023-09-30T03:28:35;96216.16;;;16.52;70.30
79799;BME280;69283;48.024;11.090;2023-09-30T03:31:01;96208.94;;;16.43;70.93
79799;BME280;69283;48.024;11.090;2023-09-30T03:33:26;96209.38;;;16.46;70.66
79799;BME280;69283;48.024;11.090;2023-09-30T03:35:51;96204.78;;;16.50;70.04
79799;BME280;69283;48.024;11.090;2023-09-30T03:38:17;96205.81;;;16.61;70.17
79799;BME280;69283;48.024;11.090;2023-09-30T03:40:45;96214.72;;;16.58;70.32
79799;BME280;69283;48.024;11.090;2023-09-30T03:43:16;96221.19;;;16.50;70.64
79799;BME280;69283;48.024;11.090;2023-09-30T03:45:41;96216.16;;;16.52;70.87
79799;BME280;69283;48.024;11.090;2023-09-30T03:48:07;96213.59;;;16.59;70.56
79799;BME280;69283;48.024;11.090;2023-09-30T03:50:33;96210.41;;;16.57;70.40
79799;BME280;69283;48.024;11.090;2023-09-30T03:53:02;96204.06;;;16.53;70.49
79799;BME280;69283;48.024;11.090;2023-09-30T03:55:28;96200.38;;;16.45;71.18
79799;BME280;69283;48.024;11.090;2023-09-30T03:57:54;96208.66;;;16.49;70.88
79799;BME280;69283;48.024;11.090;2023-09-30T04:00:20;96208.94;;;16.43;71.27
79799;BME280;69283;48.024;11.090;2023-09-30T04:02:46;96208.47;;;16.41;71.49
79799;BME280;69283;48.024;11.090;2023-09-30T04:05:15;96213.69;;;16.47;71.02
79799;BME280;69283;48.024;11.090;2023-09-30T04:07:42;96221.47;;;16.45;70.85
79799;BME280;69283;48.024;11.090;2023-09-30T04:10:08;96219.06;;;16.43;70.96
79799;BME280;69283;48.024;11.090;2023-09-30T04:12:34;96220.31;;;16.46;70.88
79799;BME280;69283;48.024;11.090;2023-09-30T04:15:00;96224.97;;;16.61;70.34
79799;BME280;69283;48.024;11.090;2023-09-30T04:17:25;96223.50;;;16.48;70.69
79799;BME280;69283;48.024;11.090;2023-09-30T04:19:52;96220.31;;;16.46;70.81
79799;BME280;69283;48.024;11.090;2023-09-30T04:22:17;96218.59;;;16.41;70.90
79799;BME280;69283;48.024;11.090;2023-09-30T04:24:44;96220.56;;;16.40;70.97
79799;BME280;69283;48.024;11.090;2023-09-30T04:27:09;96215.88;;;16.41;70.68
79799;BME280;69283;48.024;11.090;2023-09-30T04:29:34;96220.91;;;16.39;70.77
79799;BME280;69283;48.024;11.090;2023-09-30T04:32:00;96208.47;;;16.41;70.68
79799;BME280;69283;48.024;11.090;2023-09-30T04:34:25;96198.44;;;16.46;70.20
79799;BME280;69283;48.024;11.090;2023-09-30T04:36:52;96207.06;;;16.48;70.04
79799;BME280;69283;48.024;11.090;2023-09-30T04:39:18;96219.66;;;16.36;70.32
79799;BME280;69283;48.024;11.090;2023-09-30T04:41:43;96220.38;;;16.33;70.49
79799;BME280;69283;48.024;11.090;2023-09-30T04:44:09;96226.81;;;16.25;70.91
79799;BME280;69283;48.024;11.090;2023-09-30T04:46:35;96225.81;;;16.18;71.25
79799;BME280;69283;48.024;11.090;2023-09-30T04:49:01;96233.94;;;16.14;71.44
79799;BME280;69283;48.024;11.090;2023-09-30T04:51:28;96230.31;;;16.10;71.65
79799;BME280;69283;48.024;11.090;2023-09-30T04:53:53;96235.63;;;16.19;71.00
79799;BME280;69283;48.024;11.090;2023-09-30T04:56:20;96233.31;;;16.21;70.99
79799;BME280;69283;48.024;11.090;2023-09-30T04:58:45;96226.63;;;16.18;71.13
79799;BME280;69283;48.024;11.090;2023-09-30T05:01:12;96233.50;;;16.12;71.29
79799;BME280;69283;48.024;11.090;2023-09-30T05:03:37;96225.06;;;16.33;70.33
79799;BME280;69283;48.024;11.090;2023-09-30T05:06:03;96226.53;;;16.15;70.83
79799;BME280;69283;48.024;11.090;2023-09-30T05:08:28;96224.31;;;16.04;71.33
79799;BME280;69283;48.024;11.090;2023-09-30T05:10:54;96225.41;;;15.88;71.72
79799;BME280;69283;48.024;11.090;2023-09-30T05:13:22;96212.94;;;15.74;72.28
79799;BME280;69283;48.024;11.090;2023-09-30T05:15:51;96227.94;;;15.80;71.80
79799;BME280;69283;48.024;11.090;2023-09-30T05:18:17;96235.84;;;15.70;72.41
79799;BME280;69283;48.024;11.090;2023-09-30T05:20:43;96247.13;;;15.68;72.55
79799;BME280;69283;48.024;11.090;2023-09-30T05:23:09;96245.63;;;15.71;72.42
79799;BME280;69283;48.024;11.090;2023-09-30T05:25:37;96251.19;;;15.74;72.32
79799;BME280;69283;48.024;11.090;2023-09-30T05:28:03;96250.06;;;15.75;72.34
79799;BME280;69283;48.024;11.090;2023-09-30T05:30:29;96247.88;;;15.81;72.29
79799;BME280;69283;48.024;11.090;2023-09-30T05:32:55;96255.97;;;15.77;72.48
79799;BME280;69283;48.024;11.090;2023-09-30T05:35:20;96258.25;;;15.75;72.54
79799;BME280;69283;48.024;11.090;2023-09-30T05:37:47;96256.28;;;15.88;71.90
79799;BME280;69283;48.024;11.090;2023-09-30T05:40:13;96265.72;;;15.91;71.81
79799;BME280;69283;48.024;11.090;2023-09-30T05:42:47;96261.41;;;15.90;71.75
79799;BME280;69283;48.024;11.090;2023-09-30T05:45:13;96273.25;;;15.81;72.34
79799;BME280;69283;48.024;11.090;2023-09-30T05:47:39;96287.84;;;15.86;71.81
79799;BME280;69283;48.024;11.090;2023-09-30T05:50:06;96283.72;;;15.92;71.72
79799;BME280;69283;48.024;11.090;2023-09-30T05:52:32;96272.06;;;15.95;71.83
79799;BME280;69283;48.024;11.090;2023-09-30T05:54:57;96262.28;;;15.94;71.66
79799;BME280;69283;48.024;11.090;2023-09-30T05:57:22;96262.63;;;15.92;71.77
79799;BME280;69283;48.024;11.090;2023-09-30T05:59:48;96265.91;;;15.98;71.63
79799;BME280;69283;48.024;11.090;2023-09-30T06:02:15;96270.22;;;15.99;71.65
79799;BME280;69283;48.024;11.090;2023-09-30T06:04:40;96269.78;;;15.97;71.51
79799;BME280;69283;48.024;11.090;2023-09-30T06:07:06;96280.81;;;16.00;71.60
79799;BME280;69283;48.024;11.090;2023-09-30T06:09:31;96285.69;;;16.07;71.56
79799;BME280;69283;48.024;11.090;2023-09-30T06:11:56;96278.38;;;16.11;71.39
79799;BME280;69283;48.024;11.090;2023-09-30T06:14:22;96281.81;;;16.08;71.73
79799;BME280;69283;48.024;11.090;2023-09-30T06:16:47;96278.38;;;16.11;71.54
79799;BME280;69283;48.024;11.090;2023-09-30T06:19:13;96281.22;;;16.15;71.42
79799;BME280;69283;48.024;11.090;2023-09-30T06:21:38;96280.16;;;16.19;71.44
79799;BME280;69283;48.024;11.090;2023-09-30T06:24:05;96284.13;;;16.22;71.40
79799;BME280;69283;48.024;11.090;2023-09-30T06:26:30;96289.50;;;16.18;72.08
79799;BME280;69283;48.024;11.090;2023-09-30T06:28:55;96297.56;;;16.27;72.07
79799;BME280;69283;48.024;11.090;2023-09-30T06:31:21;96297.22;;;16.28;71.77
79799;BME280;69283;48.024;11.090;2023-09-30T06:33:48;96295.38;;;16.32;71.35
79799;BME280;69283;48.024;11.090;2023-09-30T06:36:14;96294.13;;;16.30;71.52
79799;BME280;69283;48.024;11.090;2023-09-30T06:38:40;96302.88;;;16.35;71.45
79799;BME280;69283;48.024;11.090;2023-09-30T06:41:07;96316.47;;;16.32;71.67
79799;BME280;69283;48.024;11.090;2023-09-30T06:43:33;96315.41;;;16.36;71.66
79799;BME280;69283;48.024;11.090;2023-09-30T06:46:05;96309.50;;;16.34;71.42
79799;BME280;69283;48.024;11.090;2023-09-30T06:48:32;96299.34;;;16.35;71.63
79799;BME280;69283;48.024;11.090;2023-09-30T06:50:57;96303.41;;;16.41;71.48
79799;BME280;69283;48.024;11.090;2023-09-30T06:53:24;96313.41;;;16.49;71.36
79799;BME280;69283;48.024;11.090;2023-09-30T06:55:49;96320.66;;;16.57;70.88
79799;BME280;69283;48.024;11.090;2023-09-30T06:58:16;96332.59;;;16.65;70.82
79799;BME280;69283;48.024;11.090;2023-09-30T07:00:47;96326.69;;;16.63;70.73
79799;BME280;69283;48.024;11.090;2023-09-30T07:03:12;96331.69;;;16.61;70.32
79799;BME280;69283;48.024;11.090;2023-09-30T07:05:40;96331.69;;;16.61;69.88
79799;BME280;69283;48.024;11.090;2023-09-30T07:08:05;96324.84;;;16.67;69.72
79799;BME280;69283;48.024;11.090;2023-09-30T07:10:30;96322.28;;;16.74;69.63
79799;BME280;69283;48.024;11.090;2023-09-30T07:12:56;96334.69;;;16.84;69.04
79799;BME280;69283;48.024;11.090;2023-09-30T07:15:22;96353.66;;;16.92;68.77
79799;BME280;69283;48.024;11.090;2023-09-30T07:17:47;96352.22;;;16.98;67.90
79799;BME280;69283;48.024;11.090;2023-09-30T07:20:13;96341.66;;;17.13;67.67
79799;BME280;69283;48.024;11.090;2023-09-30T07:22:39;96345.97;;;17.29;66.46
79799;BME280;69283;48.024;11.090;2023-09-30T07:25:05;96359.47;;;17.38;66.19
79799;BME280;69283;48.024;11.090;2023-09-30T07:27:30;96361.31;;;17.34;65.99
79799;BME280;69283;48.024;11.090;2023-09-30T07:29:55;96362.41;;;17.29;66.27
79799;BME280;69283;48.024;11.090;2023-09-30T07:32:21;96355.41;;;17.32;66.80
79799;BME280;69283;48.024;11.090;2023-09-30T07:34:50;96364.88;;;17.34;66.19
79799;BME280;69283;48.024;11.090;2023-09-30T07:37:16;96376.69;;;17.39;66.17
79799;BME280;69283;48.024;11.090;2023-09-30T07:39:42;96376.53;;;17.47;65.75
79799;BME280;69283;48.024;11.090;2023-09-30T07:42:11;96380.50;;;17.50;65.47
79799;BME280;69283;48.024;11.090;2023-09-30T07:44:36;96369.63;;;17.38;65.60
79799;BME280;69283;48.024;11.090;2023-09-30T07:47:03;96360.19;;;17.35;65.99
79799;BME280;69283;48.024;11.090;2023-09-30T07:49:29;96361.03;;;17.55;64.89
79799;BME280;69283;48.024;11.090;2023-09-30T07:51:54;96367.28;;;17.87;64.66
79799;BME280;69283;48.024;11.090;2023-09-30T07:54:20;96369.19;;;18.02;63.57
79799;BME280;69283;48.024;11.090;2023-09-30T07:56:45;96364.72;;;18.13;63.58
79799;BME280;69283;48.024;11.090;2023-09-30T07:59:10;96370.94;;;18.30;62.19
79799;BME280;69283;48.024;11.090;2023-09-30T08:01:36;96380.09;;;18.37;61.77
79799;BME280;69283;48.024;11.090;2023-09-30T08:04:02;96379.72;;;18.19;61.12
79799;BME280;69283;48.024;11.090;2023-09-30T08:06:28;96384.19;;;18.08;63.39
79799;BME280;69283;48.024;11.090;2023-09-30T08:08:53;96389.63;;;18.05;63.34
79799;BME280;69283;48.024;11.090;2023-09-30T08:11:20;96385.34;;;18.07;63.96
79799;BME280;69283;48.024;11.090;2023-09-30T08:13:46;96389.19;;;18.03;63.85
79799;BME280;69283;48.024;11.090;2023-09-30T08:16:11;96385.03;;;17.93;63.87
79799;BME280;69283;48.024;11.090;2023-09-30T08:18:36;96373.06;;;18.01;63.69
79799;BME280;69283;48.024;11.090;2023-09-30T08:21:02;96383.19;;;18.16;63.14
79799;BME280;69283;48.024;11.090;2023-09-30T08:23:27;96380.03;;;18.34;62.76
79799;BME280;69283;48.024;11.090;2023-09-30T08:25:52;96372.94;;;18.52;62.96
79799;BME280;69283;48.024;11.090;2023-09-30T08:28:19;96368.69;;;18.74;61.54
79799;BME280;69283;48.024;11.090;2023-09-30T08:30:44;96370.19;;;19.13;59.74
79799;BME280;69283;48.024;11.090;2023-09-30T08:33:10;96376.44;;;19.60;58.71
79799;BME280;69283;48.024;11.090;2023-09-30T08:35:36;96369.16;;;19.71;57.31
79799;BME280;69283;48.024;11.090;2023-09-30T08:38:02;96375.13;;;19.77;57.44
79799;BME280;69283;48.024;11.090;2023-09-30T08:40:29;96397.66;;;20.12;57.26
79799;BME280;69283;48.024;11.090;2023-09-30T08:42:54;96392.63;;;19.91;57.38
79799;BME280;69283;48.024;11.090;2023-09-30T08:45:20;96379.50;;;20.08;56.20
79799;BME280;69283;48.024;11.090;2023-09-30T08:47:46;96384.91;;;20.60;55.17
79799;BME280;69283;48.024;11.090;2023-09-30T08:50:12;96390.13;;;20.39;56.27
79799;BME280;69283;48.024;11.090;2023-09-30T08:52:40;96398.03;;;19.84;56.77
79799;BME280;69283;48.024;11.090;2023-09-30T08:55:09;96403.63;;;19.42;57.88
79799;BME280;69283;48.024;11.090;2023-09-30T08:57:37;96411.00;;;19.15;58.88
79799;BME280;69283;48.024;11.090;2023-09-30T09:00:06;96405.13;;;18.94;60.45
79799;BME280;69283;48.024;11.090;2023-09-30T09:02:34;96401.75;;;18.81;60.69
79799;BME280;69283;48.024;11.090;2023-09-30T09:05:01;96399.81;;;18.62;62.09
79799;BME280;69283;48.024;11.090;2023-09-30T09:07:26;96400.72;;;18.66;61.55
79799;BME280;69283;48.024;11.090;2023-09-30T09:12:30;96381.84;;;20.05;56.65
79799;BME280;69283;48.024;11.090;2023-09-30T09:14:56;96382.47;;;19.95;56.43
79799;BME280;69283;48.024;11.090;2023-09-30T09:17:21;96373.75;;;20.46;54.26
79799;BME280;69283;48.024;11.090;2023-09-30T09:20:08;96361.84;;;21.13;51.64
79799;BME280;69283;48.024;11.090;2023-09-30T09:22:41;96368.28;;;21.72;53.83
79799;BME280;69283;48.024;11.090;2023-09-30T09:25:07;96372.97;;;22.26;52.11
79799;BME280;69283;48.024;11.090;2023-09-30T09:27:36;96371.25;;;22.87;49.41
79799;BME280;69283;48.024;11.090;2023-09-30T09:30:20;96367.38;;;23.49;48.54
79799;BME280;69283;48.024;11.090;2023-09-30T09:33:05;96366.19;;;23.71;47.97
79799;BME280;69283;48.024;11.090;2023-09-30T09:35:32;96377.28;;;23.64;48.26
79799;BME280;69283;48.024;11.090;2023-09-30T09:38:05;96379.16;;;22.92;46.30
79799;BME280;69283;48.024;11.090;2023-09-30T09:40:35;96379.59;;;22.14;49.11
79799;BME280;69283;48.024;11.090;2023-09-30T09:43:03;96367.09;;;21.73;50.54
79799;BME280;69283;48.024;11.090;2023-09-30T09:45:34;96358.69;;;21.55;51.38
79799;BME280;69283;48.024;11.090;2023-09-30T09:48:00;96348.31;;;21.38;52.11
79799;BME280;69283;48.024;11.090;2023-09-30T09:50:26;96338.44;;;21.92;49.07
79799;BME280;69283;48.024;11.090;2023-09-30T09:52:53;96345.38;;;22.33;49.42
79799;BME280;69283;48.024;11.090;2023-09-30T09:55:21;96338.06;;;21.97;48.98
79799;BME280;69283;48.024;11.090;2023-09-30T09:57:47;96354.84;;;22.32;48.64
79799;BME280;69283;48.024;11.090;2023-09-30T10:00:18;96351.00;;;22.62;48.11
79799;BME280;69283;48.024;11.090;2023-09-30T10:02:45;96358.63;;;23.00;46.92
79799;BME280;69283;48.024;11.090;2023-09-30T10:05:15;96357.31;;;22.62;47.63
79799;BME280;69283;48.024;11.090;2023-09-30T10:07:53;96350.00;;;22.08;48.55
79799;BME280;69283;48.024;11.090;2023-09-30T10:10:20;96343.56;;;21.90;49.21
79799;BME280;69283;48.024;11.090;2023-09-30T10:12:46;96351.63;;;21.61;50.53
79799;BME280;69283;48.024;11.090;2023-09-30T10:18:03;96350.53;;;21.73;50.84
79799;BME280;69283;48.024;11.090;2023-09-30T10:20:30;96357.38;;;21.38;50.34
79799;BME280;69283;48.024;11.090;2023-09-30T10:25:44;96344.19;;;20.77;50.44
79799;BME280;69283;48.024;11.090;2023-09-30T10:28:32;96339.38;;;21.07;51.55
79799;BME280;69283;48.024;11.090;2023-09-30T10:36:36;96321.59;;;22.07;48.35
79799;BME280;69283;48.024;11.090;2023-09-30T10:39:03;96320.72;;;22.00;48.08
79799;BME280;69283;48.024;11.090;2023-09-30T10:46:50;96327.00;;;20.90;50.59
79799;BME280;69283;48.024;11.090;2023-09-30T10:49:36;96323.81;;;20.85;50.92
79799;BME280;69283;48.024;11.090;2023-09-30T10:52:03;96329.22;;;20.78;51.35
79799;BME280;69283;48.024;11.090;2023-09-30T10:54:30;96338.44;;;20.55;51.61
79799;BME280;69283;48.024;11.090;2023-09-30T10:56:57;96338.03;;;20.53;52.08
79799;BME280;69283;48.024;11.090;2023-09-30T10:59:31;96328.84;;;20.42;50.61
79799;BME280;69283;48.024;11.090;2023-09-30T11:01:57;96331.84;;;20.30;51.43
79799;BME280;69283;48.024;11.090;2023-09-30T11:04:23;96337.03;;;20.39;52.29
79799;BME280;69283;48.024;11.090;2023-09-30T11:06:48;96339.06;;;20.42;52.09
79799;BME280;69283;48.024;11.090;2023-09-30T11:09:17;96342.53;;;20.39;52.77
79799;BME280;69283;48.024;11.090;2023-09-30T11:11:46;96328.66;;;20.28;52.50
79799;BME280;69283;48.024;11.090;2023-09-30T11:14:29;96333.94;;;20.10;52.81
79799;BME280;69283;48.024;11.090;2023-09-30T11:16:59;96331.13;;;20.03;53.82
79799;BME280;69283;48.024;11.090;2023-09-30T11:19:25;96330.53;;;19.90;53.08
79799;BME280;69283;48.024;11.090;2023-09-30T11:21:53;96321.34;;;19.79;52.99
79799;BME280;69283;48.024;11.090;2023-09-30T11:24:20;96309.09;;;19.73;53.66
79799;BME280;69283;48.024;11.090;2023-09-30T11:26:46;96314.38;;;19.85;53.73
79799;BME280;69283;48.024;11.090;2023-09-30T11:31:43;96311.63;;;19.85;54.07
79799;BME280;69283;48.024;11.090;2023-09-30T11:34:09;96311.47;;;19.74;53.40
79799;BME280;69283;48.024;11.090;2023-09-30T11:36:36;96309.84;;;19.70;53.73
79799;BME280;69283;48.024;11.090;2023-09-30T11:39:02;96308.97;;;19.92;53.86
79799;BME280;69283;48.024;11.090;2023-09-30T11:41:47;96308.97;;;19.92;53.05
79799;BME280;69283;48.024;11.090;2023-09-30T11:44:12;96308.59;;;19.94;51.77
79799;BME280;69283;48.024;11.090;2023-09-30T11:47:10;96296.66;;;19.83;52.40
79799;BME280;69283;48.024;11.090;2023-09-30T11:49:41;96305.84;;;19.94;53.28
79799;BME280;69283;48.024;11.090;2023-09-30T11:52:11;96303.69;;;19.80;52.45
79799;BME280;69283;48.024;11.090;2023-09-30T11:54:38;96297.59;;;19.94;53.73
79799;BME280;69283;48.024;11.090;2023-09-30T11:57:09;96298.97;;;19.81;51.94
79799;BME280;69283;48.024;11.090;2023-09-30T11:59:35;96291.00;;;19.72;52.48
79799;BME280;69283;48.024;11.090;2023-09-30T12:02:01;96294.13;;;19.70;52.70
79799;BME280;69283;48.024;11.090;2023-09-30T12:04:27;96294.84;;;19.64;53.21
79799;BME280;69283;48.024;11.090;2023-09-30T12:06:52;96292.94;;;19.68;54.02
79799;BME280;69283;48.024;11.090;2023-09-30T12:09:18;96292.38;;;19.59;52.75
79799;BME280;69283;48.024;11.090;2023-09-30T12:11:48;96289.22;;;19.57;52.77
79799;BME280;69283;48.024;11.090;2023-09-30T12:14:14;96287.75;;;19.63;53.36
79799;BME280;69283;48.024;11.090;2023-09-30T12:16:41;96290.13;;;19.64;52.56
79799;BME280;69283;48.024;11.090;2023-09-30T12:19:06;96286.31;;;19.46;52.94
79799;BME280;69283;48.024;11.090;2023-09-30T12:21:32;96282.22;;;19.36;52.64
79799;BME280;69283;48.024;11.090;2023-09-30T12:23:57;96283.00;;;19.37;53.97
79799;BME280;69283;48.024;11.090;2023-09-30T12:26:23;96283.13;;;19.44;53.52
79799;BME280;69283;48.024;11.090;2023-09-30T12:28:49;96276.69;;;19.59;52.99
79799;BME280;69283;48.024;11.090;2023-09-30T12:31:14;96267.22;;;19.57;52.49
79799;BME280;69283;48.024;11.090;2023-09-30T12:33:40;96272.66;;;19.53;52.58
79799;BME280;69283;48.024;11.090;2023-09-30T12:36:06;96278.00;;;19.69;53.05
79799;BME280;69283;48.024;11.090;2023-09-30T12:38:32;96264.06;;;19.55;51.86
79799;BME280;69283;48.024;11.090;2023-09-30T12:40:58;96270.50;;;19.66;52.68
79799;BME280;69283;48.024;11.090;2023-09-30T12:43:23;96261.09;;;19.67;51.92
79799;BME280;69283;48.024;11.090;2023-09-30T12:45:49;96256.72;;;19.62;52.74
79799;BME280;69283;48.024;11.090;2023-09-30T12:48:14;96247.13;;;19.53;52.64
79799;BME280;69283;48.024;11.090;2023-09-30T12:50:41;96250.06;;;19.63;53.84
79799;BME280;69283;48.024;11.090;2023-09-30T12:53:06;96242.34;;;19.76;52.74
79799;BME280;69283;48.024;11.090;2023-09-30T12:55:32;96238.34;;;19.70;52.41
79799;BME280;69283;48.024;11.090;2023-09-30T12:57:57;96256.50;;;19.78;51.50
79799;BME280;69283;48.024;11.090;2023-09-30T13:00:23;96259.25;;;19.78;51.89
79799;BME280;69283;48.024;11.090;2023-09-30T13:02:50;96276.56;;;19.79;52.22
79799;BME280;69283;48.024;11.090;2023-09-30T13:05:15;96273.75;;;19.75;52.18
79799;BME280;69283;48.024;11.090;2023-09-30T13:07:42;96272.19;;;19.74;51.55
79799;BME280;69283;48.024;11.090;2023-09-30T13:10:08;96268.97;;;19.68;51.63